Time;durP1;ratioP1;P1;durP2;ratioP2;P2;SDS_P1;SDS_P2;PMS_P1;PMS_P2;Temp;Humidity;BMP_temperature;BMP_pressure;BME280_temperature;BME280_humidity;BME280_pressure;Samples;Min_cycle;Max_cycle;Signal;HPM_P1;HPM_P2
2022/08/17 00:01:36;;;;;;;3.03;2.80;;;;;;;20.51;67.37;64122.50;4949959;29;20554;-80
2022/08/17 00:04:04;;;;;;;3.65;3.30;;;;;;;20.51;68.18;64127.16;4945994;29;20288;-77
2022/08/17 00:06:32;;;;;;;3.10;2.90;;;;;;;20.32;72.63;64099.56;4948566;29;20207;-78
2022/08/17 00:09:00;;;;;;;4.45;3.10;;;;;;;20.19;72.32;64083.91;4936291;29;20367;-79
2022/08/17 00:11:31;;;;;;;3.08;2.85;;;;;;;20.05;72.04;64077.03;4931816;29;20369;-78
2022/08/17 00:14:00;;;;;;;3.70;3.38;;;;;;;20.01;72.60;64070.28;4941250;29;20268;-79
2022/08/17 00:16:31;;;;;;;3.70;3.40;;;;;;;20.02;72.75;64068.75;4934767;29;20684;-78
2022/08/17 00:18:58;;;;;;;8.40;3.17;;;;;;;19.96;72.79;64065.09;4930550;29;20269;-78
2022/08/17 00:21:27;;;;;;;4.47;3.10;;;;;;;19.95;72.35;64066.09;4935893;29;20272;-77
2022/08/17 00:23:55;;;;;;;4.40;2.92;;;;;;;19.91;73.44;64059.88;4934051;29;20280;-79
2022/08/17 00:26:24;;;;;;;3.65;2.83;;;;;;;19.91;74.58;64062.44;4930282;29;20243;-78
2022/08/17 00:28:52;;;;;;;2.88;2.67;;;;;;;19.88;74.33;64056.72;4929993;29;20241;-79
2022/08/17 00:31:19;;;;;;;3.47;3.28;;;;;;;19.88;73.76;64056.72;4931916;29;20213;-78
2022/08/17 00:33:46;;;;;;;3.50;3.20;;;;;;;19.86;72.67;64051.53;4945734;29;20287;-78
2022/08/17 00:36:14;;;;;;;3.45;3.08;;;;;;;19.79;72.95;64046.81;4944113;29;20240;-79
2022/08/17 00:38:43;;;;;;;3.72;3.47;;;;;;;19.77;72.89;64047.31;4930304;29;20249;-78
2022/08/17 00:41:14;;;;;;;4.57;3.25;;;;;;;19.74;73.83;64039.03;4930121;29;20237;-78
2022/08/17 00:43:44;;;;;;;3.25;2.92;;;;;;;19.79;74.31;64052.00;4937582;29;20252;-78
2022/08/17 00:46:13;;;;;;;3.28;3.08;;;;;;;19.83;74.28;64053.59;4948935;29;20502;-78
2022/08/17 00:48:42;;;;;;;3.17;2.92;;;;;;;19.83;74.78;64054.09;4948553;29;20225;-78
2022/08/17 00:51:16;;;;;;;4.45;4.05;;;;;;;19.79;75.38;64049.41;4933559;29;20287;-78
2022/08/17 00:53:50;;;;;;;3.83;3.63;;;;;;;19.69;76.91;64039.47;4932897;29;20297;-78
2022/08/17 00:56:22;;;;;;;5.28;3.80;;;;;;;19.67;77.33;64036.88;4930537;29;20276;-82
2022/08/17 00:58:52;;;;;;;4.68;3.95;;;;;;;19.69;77.39;64038.97;4941754;29;20297;-78
2022/08/17 01:01:19;;;;;;;3.53;3.33;;;;;;;19.71;77.26;64039.00;4947523;29;20232;-78
2022/08/17 01:03:46;;;;;;;4.95;4.10;;;;;;;19.69;77.27;64038.97;4933488;29;20229;-78
2022/08/17 01:06:13;;;;;;;4.20;3.60;;;;;;;19.73;77.74;64037.97;4934819;29;20212;-78
2022/08/17 01:08:41;;;;;;;9.75;4.68;;;;;;;19.69;77.90;64038.97;4944482;29;20243;-78
2022/08/17 01:11:09;;;;;;;3.88;3.55;;;;;;;19.66;77.67;64038.41;4936758;29;20221;-78
2022/08/17 01:13:39;;;;;;;4.00;3.70;;;;;;;19.62;77.89;64031.66;4931884;29;20237;-79
2022/08/17 01:16:11;;;;;;;5.18;3.60;;;;;;;19.72;77.89;64042.09;4942573;29;20513;-78
2022/08/17 01:18:39;;;;;;;3.95;3.63;;;;;;;19.71;78.23;64041.56;4930918;29;20228;-79
2022/08/17 01:21:12;;;;;;;5.85;4.38;;;;;;;19.65;78.21;64030.16;4937920;29;20292;-77
2022/08/17 01:23:41;;;;;;;3.78;3.55;;;;;;;19.64;77.92;64033.75;4934250;29;20225;-77
2022/08/17 01:26:08;;;;;;;8.02;3.70;;;;;;;19.61;78.06;64028.03;4939354;29;20205;-77
2022/08/17 01:28:38;;;;;;;4.55;4.15;;;;;;;19.63;78.77;64030.66;4948123;29;20236;-78
2022/08/17 01:31:07;;;;;;;4.07;3.70;;;;;;;19.58;77.97;64024.91;4946069;29;20420;-77
2022/08/17 01:33:34;;;;;;;6.20;4.07;;;;;;;19.54;78.00;64018.69;4935295;29;20428;-79
2022/08/17 01:36:02;;;;;;;3.90;3.67;;;;;;;19.50;78.47;64014.50;4943615;29;20217;-77
2022/08/17 01:38:30;;;;;;;3.83;3.53;;;;;;;19.45;79.29;64014.97;4946378;29;20233;-78
2022/08/17 01:41:03;;;;;;;3.97;3.67;;;;;;;19.42;79.33;64011.84;4940713;29;20233;-79
2022/08/17 01:43:34;;;;;;;6.97;4.05;;;;;;;19.41;79.71;64010.28;4932941;29;20229;-77
2022/08/17 01:46:03;;;;;;;7.00;3.95;;;;;;;19.34;80.22;64005.56;4937909;29;20371;-78
2022/08/17 01:48:31;;;;;;;4.00;3.80;;;;;;;19.44;80.06;64011.38;4946548;29;20221;-78
2022/08/17 01:50:58;;;;;;;5.13;4.10;;;;;;;19.39;80.57;64005.63;4928898;29;20215;-79
2022/08/17 01:53:28;;;;;;;7.68;3.92;;;;;;;19.42;80.91;64009.28;4931489;29;20263;-79
2022/08/17 01:55:58;;;;;;;4.00;3.70;;;;;;;19.44;80.83;64005.66;4938008;29;20212;-78
2022/08/17 01:58:27;;;;;;;4.13;3.83;;;;;;;19.47;80.06;64017.06;4934809;29;20232;-78
2022/08/17 02:00:55;;;;;;;3.80;3.50;;;;;;;19.40;80.41;64009.75;4943956;29;20246;-79
2022/08/17 02:03:24;;;;;;;4.38;3.88;;;;;;;19.42;80.86;64011.31;4944452;29;20301;-78
2022/08/17 02:05:52;;;;;;;3.70;3.45;;;;;;;19.45;79.98;64011.88;4945726;29;20204;-78
2022/08/17 02:08:21;;;;;;;4.07;3.65;;;;;;;19.44;80.02;64011.38;4931926;29;20731;-78
2022/08/17 02:10:50;;;;;;;5.45;4.07;;;;;;;19.45;80.76;64012.41;4927735;29;20249;-77
2022/08/17 02:13:18;;;;;;;6.68;4.65;;;;;;;19.41;81.00;64012.88;4934414;29;20202;-79
2022/08/17 02:15:47;;;;;;;4.75;4.22;;;;;;;19.42;80.40;64011.84;4933264;29;20207;-79
2022/08/17 02:18:15;;;;;;;4.22;3.72;;;;;;;19.39;81.17;64003.56;4928625;29;20240;-78
2022/08/17 02:20:43;;;;;;;4.32;3.92;;;;;;;19.45;80.62;64011.88;4928856;29;20240;-78
2022/08/17 02:23:13;;;;;;;4.22;3.92;;;;;;;19.41;80.55;64010.28;4933247;29;20244;-79
2022/08/17 02:25:43;;;;;;;4.50;4.10;;;;;;;19.41;81.00;64010.81;4947816;29;20427;-77
2022/08/17 02:28:11;;;;;;;4.78;4.43;;;;;;;19.40;81.99;64007.19;4935421;29;20209;-79
2022/08/17 02:30:38;;;;;;;5.32;4.40;;;;;;;19.33;82.79;63999.34;4945852;29;20240;-78
2022/08/17 02:33:07;;;;;;;4.40;4.00;;;;;;;19.29;83.78;63998.25;4930919;29;20205;-77
2022/08/17 02:35:34;;;;;;;4.63;4.32;;;;;;;19.19;84.52;63987.34;4927932;29;20201;-78
2022/08/17 02:38:02;;;;;;;6.00;4.10;;;;;;;19.25;84.29;63988.41;4928292;29;20217;-77
2022/08/17 02:40:29;;;;;;;4.47;3.95;;;;;;;19.24;85.30;63989.97;4933155;29;20268;-78
2022/08/17 02:42:56;;;;;;;4.47;4.18;;;;;;;19.07;85.14;63972.25;4928879;29;20215;-78
2022/08/17 02:45:25;;;;;;;4.95;4.45;;;;;;;19.01;84.96;63968.56;4939386;29;20252;-77
2022/08/17 02:47:52;;;;;;;4.78;4.30;;;;;;;18.91;85.26;63952.97;4928377;29;20242;-78
2022/08/17 02:50:23;;;;;;;8.00;4.63;;;;;;;19.00;85.72;63967.53;4939504;29;20220;-78
2022/08/17 02:52:51;;;;;;;6.30;5.10;;;;;;;18.95;86.25;63957.13;4941853;29;20231;-78
2022/08/17 02:55:24;;;;;;;4.57;4.25;;;;;;;18.92;86.76;63959.69;4938982;29;20248;-77
2022/08/17 02:57:52;;;;;;;6.93;4.47;;;;;;;18.93;86.81;63965.88;4942686;29;20233;-78
2022/08/17 03:00:22;;;;;;;4.95;4.55;;;;;;;18.90;87.04;63957.59;4945042;29;20259;-78
2022/08/17 03:02:50;;;;;;;4.53;4.20;;;;;;;18.94;86.94;63958.69;4932787;29;20248;-79
2022/08/17 03:05:20;;;;;;;7.38;4.75;;;;;;;18.95;86.85;63959.72;4927962;29;20597;-78
2022/08/17 03:07:49;;;;;;;4.43;4.18;;;;;;;18.92;86.85;63957.13;4933754;29;20209;-77
2022/08/17 03:10:16;;;;;;;4.93;4.10;;;;;;;18.96;86.50;63963.34;4933534;29;20252;-76
2022/08/17 03:12:45;;;;;;;3.72;3.45;;;;;;;18.98;86.31;63962.84;4935213;29;20216;-78
2022/08/17 03:15:16;;;;;;;7.00;4.60;;;;;;;18.94;86.82;63958.69;4935476;29;20303;-79
2022/08/17 03:17:44;;;;;;;6.05;4.38;;;;;;;18.88;86.82;63955.53;4938436;29;20607;-76
2022/08/17 03:20:12;;;;;;;4.80;4.20;;;;;;;19.01;87.28;63968.56;4950099;29;20255;-77
2022/08/17 03:22:44;;;;;;;5.25;4.85;;;;;;;18.96;87.50;63963.88;4948122;29;20217;-80
2022/08/17 03:25:17;;;;;;;4.18;3.97;;;;;;;18.88;88.34;63955.00;4941889;29;20279;-79
2022/08/17 03:27:44;;;;;;;4.30;4.00;;;;;;;18.94;88.30;63959.22;4951480;29;20233;-79
2022/08/17 03:30:13;;;;;;;7.95;4.88;;;;;;;18.94;88.35;63963.84;4951070;29;20420;-79
2022/08/17 03:32:42;;;;;;;6.47;5.47;;;;;;;18.89;89.20;63954.00;4949634;29;20209;-78
2022/08/17 03:35:11;;;;;;;5.50;4.68;;;;;;;18.85;89.38;63952.41;4942537;29;20239;-77
2022/08/17 03:37:38;;;;;;;5.22;4.78;;;;;;;18.81;89.53;63948.22;4931801;29;20209;-79
2022/08/17 03:40:07;;;;;;;4.32;3.92;;;;;;;18.81;89.28;63945.13;4939790;29;20320;-78
2022/08/17 03:42:37;;;;;;;9.35;4.85;;;;;;;18.85;88.37;63954.44;4939903;29;20209;-78
2022/08/17 03:45:07;;;;;;;5.07;4.68;;;;;;;18.87;88.43;63953.97;4945441;29;20286;-78
2022/08/17 03:58:31;;;;;;;4.55;4.15;;;;;;;18.94;90.05;63961.78;4946840;29;20299;-79
2022/08/17 04:00:58;;;;;;;7.03;4.20;;;;;;;18.98;89.50;63965.44;4947748;29;20579;-78
2022/08/17 04:03:25;;;;;;;5.32;4.75;;;;;;;19.05;89.83;63970.16;4937603;29;20225;-80
2022/08/17 04:05:52;;;;;;;4.38;4.07;;;;;;;19.14;89.13;63979.53;4935249;29;20260;-78
2022/08/17 04:08:19;;;;;;;5.10;4.70;;;;;;;19.17;89.34;63982.66;4938251;29;20216;-79
2022/08/17 04:10:46;;;;;;;4.85;4.35;;;;;;;19.23;89.83;63989.44;4947720;29;20201;-79
2022/08/17 04:13:13;;;;;;;4.95;4.55;;;;;;;19.24;88.94;63990.47;4939464;29;20217;-80
2022/08/17 04:15:42;;;;;;;4.70;4.30;;;;;;;19.33;89.48;63999.34;4932644;29;20467;-77
2022/08/17 04:18:09;;;;;;;4.97;4.50;;;;;;;19.40;89.12;64004.59;4941227;29;20273;-79
2022/08/17 04:20:36;;;;;;;4.32;4.07;;;;;;;19.41;90.13;64008.22;4944142;29;20236;-79
2022/08/17 04:23:08;;;;;;;4.97;4.60;;;;;;;19.32;90.13;63993.69;4935325;29;20256;-78
2022/08/17 04:25:37;;;;;;;4.47;4.07;;;;;;;19.62;89.92;64029.63;4939029;29;20232;-80
2022/08/17 04:28:05;;;;;;;5.68;4.50;;;;;;;19.69;89.52;64036.91;4939756;29;20220;-78
2022/08/17 04:30:35;;;;;;;8.27;5.03;;;;;;;19.79;89.50;64049.41;4935439;29;20254;-78
2022/08/17 04:33:07;;;;;;;4.53;4.22;;;;;;;19.94;88.54;64065.56;4935068;29;20206;-79
2022/08/17 04:35:37;;;;;;;5.97;4.32;;;;;;;20.05;88.35;64079.63;4930869;29;20216;-79
2022/08/17 04:38:05;;;;;;;4.93;4.20;;;;;;;20.16;88.31;64082.84;4929938;29;20269;-77
2022/08/17 04:43:19;;;;;;;7.88;5.00;;;;;;;20.25;86.79;64095.34;4949163;29;20229;-79
2022/08/17 04:45:47;;;;;;;5.18;4.63;;;;;;;20.36;85.62;64109.41;4949004;29;20260;-78
2022/08/17 04:48:16;;;;;;;6.28;4.70;;;;;;;20.41;84.57;64112.06;4947557;29;20213;-78
2022/08/17 04:50:45;;;;;;;5.60;5.10;;;;;;;20.36;85.53;64106.31;4938599;29;20201;-78
2022/08/17 04:53:13;;;;;;;6.53;5.22;;;;;;;20.32;85.33;64105.25;4930722;29;20434;-77
2022/08/17 04:55:41;;;;;;;5.43;4.93;;;;;;;20.08;87.99;64079.66;4929548;29;20261;-77
2022/08/17 04:58:09;;;;;;;6.70;6.03;;;;;;;19.92;90.66;64063.47;4946639;29;20211;-78
2022/08/17 05:00:37;;;;;;;8.10;6.68;;;;;;;19.92;90.54;64060.91;4946453;29;20229;-78
2022/08/17 05:03:05;;;;;;;12.10;6.22;;;;;;;19.97;90.45;64066.13;4936447;29;20243;-77
2022/08/17 05:05:36;;;;;;;10.65;5.97;;;;;;;20.10;89.18;64081.75;4948171;29;20216;-77
2022/08/17 05:08:06;;;;;;;6.72;6.05;;;;;;;20.00;89.50;64066.16;4937988;29;20261;-78
2022/08/17 05:10:35;;;;;;;10.85;5.78;;;;;;;20.07;90.66;64079.13;4932264;29;20277;-77
2022/08/17 05:13:05;;;;;;;7.78;5.68;;;;;;;20.35;90.92;64108.38;4938727;29;20257;-78
2022/08/17 05:15:34;;;;;;;9.35;5.60;;;;;;;20.42;89.23;64113.09;4936316;29;20208;-78
2022/08/17 05:18:02;;;;;;;11.45;6.25;;;;;;;20.50;88.08;64126.09;4945480;29;20217;-81
2022/08/17 05:20:29;;;;;;;6.57;5.63;;;;;;;20.73;87.90;64144.41;4931688;29;20402;-79
2022/08/17 05:23:00;;;;;;;8.93;6.00;;;;;;;20.92;86.02;64166.84;4936361;29;20624;-77
2022/08/17 05:25:29;;;;;;;6.85;5.50;;;;;;;21.03;86.78;64176.28;4942726;29;20216;-79
2022/08/17 05:28:07;;;;;;;7.93;5.53;;;;;;;21.31;84.91;64208.09;4934716;29;20210;-78
2022/08/17 05:30:35;;;;;;;5.78;5.20;;;;;;;21.37;83.11;64214.38;4928910;29;20219;-78
2022/08/17 05:33:06;;;;;;;5.88;5.32;;;;;;;21.45;82.69;64220.13;4931863;29;20217;-79
2022/08/17 05:35:38;;;;;;;8.40;5.88;;;;;;;21.57;82.66;64234.75;4945610;29;20236;-78
2022/08/17 05:38:08;;;;;;;8.25;6.00;;;;;;;21.64;79.98;64245.16;4929586;29;20209;-78
2022/08/17 05:40:35;;;;;;;8.30;5.95;;;;;;;21.70;79.60;64248.31;4932835;29;20213;-78
2022/08/17 05:43:07;;;;;;;7.70;6.50;;;;;;;21.87;77.76;64263.00;4942604;29;20300;-77
2022/08/17 05:45:36;;;;;;;6.20;5.60;;;;;;;22.03;76.41;64288.03;4944671;29;20251;-79
2022/08/17 05:48:03;;;;;;;8.75;6.10;;;;;;;22.09;76.14;64289.09;4928965;29;20578;-77
2022/08/17 05:50:46;;;;;;;8.70;6.20;;;;;;;21.99;74.61;64276.06;4929276;29;20201;-76
2022/08/17 05:53:22;;;;;;;9.93;5.80;;;;;;;21.88;74.80;64267.16;4942820;29;20533;-77
2022/08/17 05:56:03;;;;;;;9.85;5.38;;;;;;;21.49;76.02;64221.72;4937314;29;20397;-78
2022/08/17 05:58:36;;;;;;;7.07;5.95;;;;;;;21.47;76.55;64221.69;4928680;29;20232;-78
2022/08/17 06:01:14;;;;;;;8.13;5.43;;;;;;;21.58;77.46;64236.31;4934088;29;20259;-79
2022/08/17 06:03:49;;;;;;;12.63;6.15;;;;;;;21.68;77.14;64248.81;4943501;29;20307;-78
2022/08/17 06:06:31;;;;;;;9.10;6.05;;;;;;;21.70;76.08;64243.66;4947229;29;20212;-77
2022/08/17 06:09:10;;;;;;;5.97;5.43;;;;;;;21.65;75.03;64237.91;4929141;29;20292;-79
2022/08/17 06:11:45;;;;;;;6.75;6.20;;;;;;;21.82;75.51;64255.69;4936069;29;20849;-77
2022/08/17 06:14:35;;;;;;;9.90;6.28;;;;;;;21.81;75.82;64259.31;4934648;29;20236;-79
2022/08/17 06:17:06;;;;;;;12.90;5.85;;;;;;;22.04;74.74;64278.69;4929652;29;20261;-78
2022/08/17 06:19:39;;;;;;;17.35;5.88;;;;;;;22.03;75.17;64279.72;4938628;29;20244;-80
2022/08/17 06:22:07;;;;;;;16.88;6.55;;;;;;;22.13;73.78;64285.50;4942235;29;20240;-76
2022/08/17 06:24:41;;;;;;;9.55;6.15;;;;;;;21.91;75.94;64267.69;4937211;29;20225;-79
2022/08/17 06:27:13;;;;;;;13.18;6.75;;;;;;;22.14;73.54;64294.31;4928647;29;20256;-79
2022/08/17 06:29:49;;;;;;;6.68;5.03;;;;;;;22.42;72.49;64323.59;4944030;29;20413;-79
2022/08/17 06:32:16;;;;;;;8.88;6.05;;;;;;;22.29;73.92;64307.41;4944065;29;20201;-78
2022/08/17 06:34:45;;;;;;;11.18;6.38;;;;;;;22.48;73.32;64324.16;4930488;29;20688;-77
2022/08/17 06:37:29;;;;;;;7.40;5.70;;;;;;;22.50;73.64;64328.84;4938708;29;20227;-79
2022/08/17 06:40:14;;;;;;;8.63;6.65;;;;;;;22.63;72.24;64342.97;4941417;29;20275;-80
2022/08/17 06:42:51;;;;;;;7.60;6.72;;;;;;;22.79;70.80;64359.72;4940504;29;20240;-78
2022/08/17 06:45:24;;;;;;;10.68;6.43;;;;;;;22.65;71.23;64347.66;4945321;29;20255;-78
2022/08/17 06:47:58;;;;;;;11.18;5.95;;;;;;;22.95;69.73;64375.41;4939327;29;20358;-78
2022/08/17 06:50:34;;;;;;;7.40;6.22;;;;;;;23.22;68.35;64406.75;4942856;29;20196;-79
2022/08/17 06:53:08;;;;;;;12.20;7.15;;;;;;;23.43;66.20;64428.75;4947458;29;20208;-78
2022/08/17 06:55:45;;;;;;;6.88;6.18;;;;;;;23.54;65.69;64437.13;4940340;29;20531;-77
2022/08/17 06:58:24;;;;;;;8.63;5.90;;;;;;;23.21;66.61;64402.59;4940337;29;20204;-79
2022/08/17 07:00:57;;;;;;;9.10;6.15;;;;;;;23.36;67.31;64416.22;4935250;29;20193;-78
2022/08/17 07:03:32;;;;;;;11.30;6.50;;;;;;;23.47;67.05;64432.91;4936482;29;20236;-79
2022/08/17 07:06:03;;;;;;;15.82;7.25;;;;;;;23.44;66.96;64427.19;4943379;29;20208;-78
2022/08/17 07:08:45;;;;;;;10.10;6.35;;;;;;;23.55;66.09;64438.16;4946593;29;20227;-79
2022/08/17 07:11:19;;;;;;;9.68;6.28;;;;;;;23.66;67.09;64452.28;4934319;29;20225;-79
2022/08/17 07:13:53;;;;;;;9.40;6.35;;;;;;;23.94;65.73;64484.19;4951128;29;20227;-77
2022/08/17 07:16:26;;;;;;;7.35;5.88;;;;;;;24.16;64.64;64504.63;4947059;29;20220;-78
2022/08/17 07:18:55;;;;;;;9.60;6.20;;;;;;;24.37;65.21;64528.69;4944452;29;20293;-79
2022/08/17 07:21:37;;;;;;;9.25;6.60;;;;;;;24.37;63.64;64524.00;4943454;29;20247;-76
2022/08/17 07:24:18;;;;;;;11.52;6.55;;;;;;;24.09;63.30;64492.09;4947601;29;20244;-79
2022/08/17 07:26:48;;;;;;;17.15;5.97;;;;;;;24.11;63.28;64496.78;4946628;29;20209;-79
2022/08/17 07:29:18;;;;;;;10.30;6.25;;;;;;;24.27;63.02;64515.63;4937888;29;20221;-79
2022/08/17 07:31:46;;;;;;;17.73;5.95;;;;;;;24.37;62.12;64526.09;4937813;29;20252;-78
2022/08/17 07:34:14;;;;;;;12.45;6.80;;;;;;;24.44;62.75;64530.81;4943119;29;20248;-78
2022/08/17 07:36:42;;;;;;;8.75;5.38;;;;;;;24.50;61.75;64539.72;4936454;29;20231;-80
2022/08/17 07:39:10;;;;;;;6.43;5.82;;;;;;;24.78;60.99;64572.16;4949765;29;20291;-79
2022/08/17 07:41:41;;;;;;;9.65;5.90;;;;;;;24.87;58.91;64573.25;4950487;29;20232;-79
2022/08/17 07:44:16;;;;;;;9.27;6.13;;;;;;;24.87;58.46;64573.25;4948538;29;20237;-76
2022/08/17 07:49:37;;;;;;;10.90;6.47;;;;;;;25.08;57.65;64603.06;4936607;29;20480;-78
2022/08/17 07:52:07;;;;;;;7.85;5.35;;;;;;;25.17;57.69;64607.28;4937562;29;20216;-76
2022/08/17 07:54:37;;;;;;;7.22;5.40;;;;;;;25.07;55.78;64605.16;4947951;29;20221;-78
2022/08/17 07:57:33;;;;;;;8.32;5.82;;;;;;;25.18;55.85;64613.53;4933130;29;20245;-78
2022/08/17 08:00:27;;;;;;;6.72;5.32;;;;;;;25.19;55.35;64612.00;4941032;29;20239;-76
2022/08/17 08:03:12;;;;;;;7.53;5.57;;;;;;;25.21;54.35;64619.31;4926966;29;20243;-77
2022/08/17 08:05:49;;;;;;;6.28;4.97;;;;;;;25.44;54.43;64635.59;4938394;29;20205;-77
2022/08/17 08:08:24;;;;;;;7.07;5.63;;;;;;;25.58;52.04;64655.47;4943114;29;20268;-77
2022/08/17 08:11:00;;;;;;;17.35;5.88;;;;;;;25.67;52.07;64661.78;4937188;29;20256;-79
2022/08/17 08:13:29;;;;;;;5.53;4.93;;;;;;;25.72;51.53;64669.63;4948196;29;20228;-76
2022/08/17 08:16:24;;;;;;;7.07;5.22;;;;;;;25.53;51.92;64652.84;4939506;29;20260;-77
2022/08/17 08:18:54;;;;;;;10.10;6.03;;;;;;;25.70;51.58;64665.44;4941503;29;20232;-78
2022/08/17 08:21:40;;;;;;;5.80;5.28;;;;;;;25.96;50.83;64689.56;4947216;29;20358;-78
2022/08/17 08:24:45;;;;;;;4.75;4.40;;;;;;;25.82;50.55;64680.09;4947800;29;20221;-79
2022/08/17 08:27:26;;;;;;;5.28;4.82;;;;;;;25.87;50.86;64683.25;4921066;29;20211;-77
2022/08/17 08:29:57;;;;;;;6.72;5.10;;;;;;;25.99;50.74;64692.69;4941876;29;20221;-78
2022/08/17 08:32:41;;;;;;;6.45;4.70;;;;;;;26.13;50.48;64707.94;4932710;29;20229;-77
2022/08/17 08:35:14;;;;;;;5.18;4.68;;;;;;;25.99;51.15;64693.22;4941289;29;20427;-76
2022/08/17 08:37:50;;;;;;;6.28;5.65;;;;;;;25.91;51.71;64684.84;4946705;29;20204;-79
2022/08/17 08:40:37;;;;;;;6.20;5.22;;;;;;;26.03;52.18;64691.69;4949173;29;20303;-77
2022/08/17 08:43:17;;;;;;;6.88;4.93;;;;;;;26.22;51.27;64722.06;4948547;29;20469;-79
2022/08/17 08:45:55;;;;;;;6.78;4.82;;;;;;;26.28;50.65;64723.13;4937864;29;20272;-78
2022/08/17 08:48:47;;;;;;;4.88;4.45;;;;;;;26.33;49.55;64725.22;4939887;29;20275;-77
2022/08/17 08:51:20;;;;;;;4.88;4.20;;;;;;;26.45;47.70;64743.56;4930663;29;20273;-78
2022/08/17 08:53:56;;;;;;;4.90;4.60;;;;;;;26.29;48.66;64726.25;4944907;29;20272;-77
2022/08/17 08:56:40;;;;;;;4.22;3.83;;;;;;;26.37;47.83;64726.81;4946099;29;20212;-79
2022/08/17 08:59:20;;;;;;;4.57;4.18;;;;;;;26.68;47.59;64767.19;4929537;29;20300;-75
2022/08/17 09:01:58;;;;;;;3.67;3.45;;;;;;;26.68;47.25;64770.31;4940955;29;20220;-78
2022/08/17 09:04:46;;;;;;;3.65;3.42;;;;;;;26.88;45.23;64788.69;4935256;29;20292;-77
2022/08/17 09:07:29;;;;;;;5.15;3.80;;;;;;;27.15;45.37;64822.22;4933739;29;20228;-81
2022/08/17 09:10:03;;;;;;;4.53;3.60;;;;;;;27.05;46.07;64806.00;4940168;29;20237;-76
2022/08/17 09:12:41;;;;;;;5.90;3.75;;;;;;;26.96;44.73;64791.84;4932506;29;20211;-77
2022/08/17 09:15:16;;;;;;;4.35;3.92;;;;;;;26.81;43.94;64783.44;4936994;29;20601;-79
2022/08/17 09:17:49;;;;;;;3.25;2.78;;;;;;;26.95;42.88;64798.66;4944521;29;20215;-75
2022/08/17 09:20:24;;;;;;;5.57;3.22;;;;;;;27.09;43.96;64812.81;4937651;29;20564;-79
2022/08/17 09:23:07;;;;;;;2.75;2.58;;;;;;;26.85;43.08;64782.91;4943038;29;20236;-77
2022/08/17 09:25:48;;;;;;;2.63;2.40;;;;;;;27.04;42.67;64799.72;4942088;29;20565;-77
2022/08/17 09:28:19;;;;;;;3.38;3.08;;;;;;;26.85;43.26;64782.91;4945046;29;20204;-78
2022/08/17 09:30:51;;;;;;;3.00;2.90;;;;;;;27.14;43.17;64812.81;4947841;29;20213;-78
2022/08/17 09:33:24;;;;;;;3.08;2.90;;;;;;;27.09;43.17;64810.19;4936643;29;20264;-79
2022/08/17 09:35:57;;;;;;;3.75;3.47;;;;;;;27.41;42.76;64849.00;4939264;29;20232;-76
2022/08/17 09:38:32;;;;;;;4.50;3.17;;;;;;;27.44;42.49;64844.31;4937661;29;20253;-79
2022/08/17 09:41:09;;;;;;;3.00;2.80;;;;;;;27.60;41.46;64863.72;4937434;29;20250;-80
2022/08/17 09:43:43;;;;;;;8.25;3.13;;;;;;;27.33;41.62;64832.78;4942955;29;20236;-76
2022/08/17 09:46:15;;;;;;;3.47;3.22;;;;;;;27.45;41.40;64844.84;4947189;29;20275;-79
2022/08/17 09:48:50;;;;;;;3.40;3.10;;;;;;;27.53;42.17;64853.22;4945356;29;20553;-78
2022/08/17 09:51:24;;;;;;;3.92;3.55;;;;;;;27.58;41.97;64861.09;4935738;29;20212;-78
2022/08/17 09:53:51;;;;;;;5.32;3.42;;;;;;;27.62;41.93;64863.19;4930320;29;20237;-75
2022/08/17 09:56:39;;;;;;;3.67;3.25;;;;;;;27.91;41.24;64898.38;4939917;29;20391;-79
2022/08/17 09:59:22;;;;;;;3.50;3.30;;;;;;;28.08;41.80;64914.13;4945726;29;20478;-77
2022/08/17 10:01:56;;;;;;;5.28;3.47;;;;;;;27.81;41.46;64880.53;4948450;29;20232;-78
2022/08/17 10:04:38;;;;;;;4.50;3.40;;;;;;;28.03;41.30;64908.88;4948271;29;20579;-77
2022/08/17 10:07:13;;;;;;;4.05;3.80;;;;;;;28.18;41.03;64924.63;4932715;29;20205;-79
2022/08/17 10:09:54;;;;;;;3.80;3.38;;;;;;;27.99;41.71;64902.03;4928634;29;20244;-77
2022/08/17 10:12:31;;;;;;;6.10;3.20;;;;;;;28.06;41.47;64911.50;4932089;29;20205;-79
2022/08/17 10:15:17;;;;;;;3.75;3.30;;;;;;;28.19;40.81;64925.16;4928751;29;20320;-77
2022/08/17 10:18:11;;;;;;;5.50;3.78;;;;;;;28.09;39.58;64917.78;4946188;29;20208;-77
2022/08/17 10:20:48;;;;;;;4.22;3.83;;;;;;;28.12;39.89;64917.78;4938515;29;20207;-78
2022/08/17 10:26:14;;;;;;;5.63;3.55;;;;;;;27.73;39.53;64877.38;4945081;29;20504;-76
2022/08/17 10:28:49;;;;;;;4.50;3.28;;;;;;;27.70;39.90;64868.47;4937257;29;20276;-78
2022/08/17 10:31:26;;;;;;;4.03;3.47;;;;;;;27.91;40.65;64898.38;4937668;29;20255;-76
2022/08/17 10:34:21;;;;;;;4.00;3.70;;;;;;;28.19;39.59;64923.06;4942484;29;20227;-79
2022/08/17 10:36:54;;;;;;;3.75;3.15;;;;;;;28.36;38.20;64943.00;4933491;29;20201;-77
2022/08/17 10:39:30;;;;;;;3.78;3.33;;;;;;;28.28;39.51;64931.97;4942510;29;20229;-76
2022/08/17 10:42:04;;;;;;;4.28;2.90;;;;;;;28.24;40.27;64933.53;4938375;29;20441;-78
2022/08/17 10:44:45;;;;;;;6.00;3.67;;;;;;;28.53;40.07;64960.84;4940666;29;20434;-78
2022/08/17 10:47:14;;;;;;;5.13;3.30;;;;;;;28.71;39.56;64979.78;4940127;29;20231;-77
2022/08/17 10:49:46;;;;;;;4.13;3.28;;;;;;;28.79;37.84;64990.78;4936072;29;20287;-77
2022/08/17 10:52:48;;;;;;;6.90;3.30;;;;;;;28.99;37.67;65014.41;4939504;29;20213;-79
2022/08/17 10:55:19;;;;;;;3.47;2.95;;;;;;;29.10;37.86;65020.75;4940894;29;20220;-76
2022/08/17 10:57:48;;;;;;;3.67;3.45;;;;;;;29.03;37.25;65012.84;4940570;29;20241;-78
2022/08/17 11:01:07;;;;;;;5.95;3.70;;;;;;;29.01;35.59;65008.66;4947289;29;20260;-78
2022/08/17 11:03:34;;;;;;;3.58;2.50;;;;;;;28.87;33.56;64996.56;4898213;29;20241;-80
2022/08/17 11:06:13;;;;;;;3.63;3.30;;;;;;;28.98;36.33;65007.59;4934978;29;20217;-76
2022/08/17 11:09:18;;;;;;;4.18;3.60;;;;;;;29.30;36.55;65038.63;4931881;29;20508;-78
2022/08/17 11:12:08;;;;;;;3.97;3.67;;;;;;;29.19;36.10;65024.97;4929525;29;20209;-76
2022/08/17 11:14:59;;;;;;;5.15;3.53;;;;;;;29.16;36.02;65023.91;4938670;29;20267;-76
2022/08/17 11:17:52;;;;;;;5.32;3.20;;;;;;;29.40;36.14;65051.75;4942435;29;20208;-77
2022/08/17 11:21:02;;;;;;;8.73;3.65;;;;;;;29.54;34.64;65069.59;4940661;29;20254;-79
2022/08/17 11:23:56;;;;;;;4.13;3.47;;;;;;;29.42;34.98;65057.00;4909392;29;20303;-77
2022/08/17 11:26:28;;;;;;;3.40;3.20;;;;;;;29.27;35.36;65041.25;4921241;29;20224;-75
2022/08/17 11:29:02;;;;;;;3.15;2.95;;;;;;;29.09;34.74;65016.53;4942421;29;20508;-76
2022/08/17 11:31:35;;;;;;;4.38;3.53;;;;;;;29.35;35.71;65043.88;4941494;29;20201;-78
2022/08/17 11:34:06;;;;;;;3.22;3.05;;;;;;;29.67;35.45;65079.59;4941788;29;20234;-78
2022/08/17 11:37:11;;;;;;;4.07;3.70;;;;;;;29.95;33.45;65106.94;4945995;29;20205;-78
2022/08/17 11:40:09;;;;;;;6.50;3.28;;;;;;;30.04;32.14;65119.03;4943571;29;20225;-77
2022/08/17 11:42:52;;;;;;;3.65;3.25;;;;;;;29.55;33.42;65070.13;4938565;29;20279;-76
2022/08/17 11:45:53;;;;;;;3.80;2.83;;;;;;;29.83;31.82;65099.59;4947557;29;20228;-77
2022/08/17 11:51:33;;;;;;;3.30;3.10;;;;;;;30.35;33.14;65151.66;4939644;29;20215;-79
2022/08/17 11:54:05;;;;;;;2.90;2.70;;;;;;;30.56;31.32;65173.72;4943414;29;20247;-80
2022/08/17 11:56:45;;;;;;;3.88;2.83;;;;;;;30.69;31.58;65181.63;4940798;29;20241;-77
2022/08/17 11:59:49;;;;;;;5.30;2.70;;;;;;;30.49;32.34;65169.00;4943045;29;20224;-81
2022/08/17 12:02:37;;;;;;;6.25;2.88;;;;;;;30.77;32.16;65192.66;4934139;29;20209;-77
2022/08/17 12:05:34;;;;;;;4.78;2.80;;;;;;;30.37;31.06;65156.38;4950751;29;20284;-77
2022/08/17 12:08:20;;;;;;;5.70;4.18;;;;;;;29.05;40.62;65012.31;4923669;29;20212;-76
2022/08/17 12:10:59;;;;;;;4.68;4.35;;;;;;;28.60;41.67;64967.69;4943931;29;20280;-76
2022/08/17 12:13:29;;;;;;;8.57;4.53;;;;;;;28.87;42.77;64993.94;4948769;29;20228;-77
2022/08/17 12:15:58;;;;;;;7.88;4.85;;;;;;;29.03;42.90;65015.47;4949089;29;20386;-77
2022/08/17 12:18:28;;;;;;;4.53;4.28;;;;;;;28.91;43.69;64997.63;4944973;29;20298;-76
2022/08/17 12:21:17;;;;;;;9.85;5.43;;;;;;;28.58;43.81;64966.09;4937418;29;20231;-77
2022/08/17 12:23:55;;;;;;;5.32;4.82;;;;;;;27.88;45.14;64890.50;4950713;29;20268;-81
2022/08/17 12:26:26;;;;;;;5.70;5.05;;;;;;;27.70;46.29;64876.81;4937642;29;20244;-76